createdAt,value
2022-12-06T00:01:34.403Z,95228.72
2022-12-06T00:04:05.091Z,95231.66
2022-12-06T00:06:33.926Z,95229.28
2022-12-06T00:09:01.408Z,95220.44
2022-12-06T00:11:31.571Z,95223.38
2022-12-06T00:14:01.336Z,95220.44
2022-12-06T00:16:29.274Z,95227.38
2022-12-06T00:18:56.578Z,95231.06
2022-12-06T00:21:26.153Z,95224.66
2022-12-06T00:23:56.385Z,95222.50
2022-12-06T00:26:24.366Z,95220.91
2022-12-06T00:28:56.658Z,95233.75
2022-12-06T00:31:25.981Z,95231.88
2022-12-06T00:33:53.670Z,95231.63
2022-12-06T00:36:26.053Z,95235.34
2022-12-06T00:38:53.548Z,95227.59
2022-12-06T00:41:23.360Z,95241.84
2022-12-06T00:43:51.613Z,95233.53
2022-12-06T00:46:21.228Z,95225.19
2022-12-06T00:48:49.575Z,95223.84
2022-12-06T00:51:18.649Z,95231.59
2022-12-06T00:53:46.552Z,95221.69
2022-12-06T00:56:13.844Z,95219.75
2022-12-06T00:58:41.248Z,95206.69
2022-12-06T01:01:13.318Z,95215.03
2022-12-06T01:03:40.950Z,95209.63
2022-12-06T01:06:11.989Z,95212.34
2022-12-06T01:08:39.996Z,95212.03
2022-12-06T01:11:07.774Z,95206.38
2022-12-06T01:13:35.753Z,95203.19
2022-12-06T01:16:12.071Z,95196.75
2022-12-06T01:18:39.822Z,95194.06
2022-12-06T01:21:15.175Z,95192.75
2022-12-06T01:23:43.264Z,95192.47
2022-12-06T01:26:18.355Z,95196.75
2022-12-06T01:28:45.730Z,95194.09
2022-12-06T01:31:13.240Z,95186.34
2022-12-06T01:33:40.559Z,95187.94
2022-12-06T01:36:08.069Z,95182.59
2022-12-06T01:38:35.722Z,95175.13
2022-12-06T01:41:02.744Z,95177.00
2022-12-06T01:43:39.470Z,95184.47
2022-12-06T01:46:44.452Z,95186.63
2022-12-06T01:49:21.159Z,95182.34
2022-12-06T01:51:51.943Z,95175.91
2022-12-06T01:54:20.825Z,95172.69
2022-12-06T01:56:49.698Z,95176.72
2022-12-06T01:59:17.269Z,95178.31
2022-12-06T02:01:45.234Z,95172.69
2022-12-06T02:04:14.196Z,95171.63
2022-12-06T02:06:42.033Z,95174.31
2022-12-06T02:09:11.430Z,95162.53
2022-12-06T02:11:40.151Z,95159.88
2022-12-06T02:14:12.066Z,95157.19
2022-12-06T02:17:09.770Z,95161.41
2022-12-06T02:19:58.787Z,95151.84
2022-12-06T02:23:06.080Z,95152.63
2022-12-06T02:25:54.151Z,95156.88
2022-12-06T02:29:04.160Z,95143.78
2022-12-06T02:31:45.924Z,95145.38
2022-12-06T02:34:53.446Z,95140.84
2022-12-06T02:37:31.231Z,95142.44
2022-12-06T02:40:12.175Z,95135.75
2022-12-06T02:42:56.130Z,95136.88
2022-12-06T02:45:28.872Z,95126.19
2022-12-06T02:48:01.166Z,95139.56
2022-12-06T02:50:37.538Z,95124.31
2022-12-06T02:53:07.921Z,95128.06
2022-12-06T02:55:35.955Z,95127.25
2022-12-06T02:58:03.131Z,95119.50
2022-12-06T03:00:42.421Z,95130.19
2022-12-06T03:03:41.011Z,95141.69
2022-12-06T03:06:26.064Z,95140.09
2022-12-06T03:09:45.695Z,95132.34
2022-12-06T03:12:30.897Z,95136.88
2022-12-06T03:15:09.152Z,95136.88
2022-12-06T03:17:59.572Z,95134.75
2022-12-06T03:20:43.134Z,95131.53
2022-12-06T03:23:14.624Z,95125.41
2022-12-06T03:25:42.411Z,95130.75
2022-12-06T03:28:19.401Z,95132.34
2022-12-06T03:30:50.418Z,95120.31
2022-12-06T03:33:22.582Z,95128.91
2022-12-06T03:35:52.602Z,95111.81
2022-12-06T03:38:37.912Z,95116.09
2022-12-06T03:41:07.963Z,95113.94
2022-12-06T03:43:35.337Z,95117.16
2022-12-06T03:46:10.935Z,95117.16
2022-12-06T03:48:49.366Z,95121.16
2022-12-06T03:51:26.303Z,95114.75
2022-12-06T03:53:56.718Z,95114.22
2022-12-06T03:56:23.890Z,95112.34
2022-12-06T03:58:51.435Z,95111.00
2022-12-06T04:01:21.367Z,95110.75
2022-12-06T04:03:48.643Z,95106.47
2022-12-06T04:06:15.912Z,95109.16
2022-12-06T04:08:43.010Z,95111.00
2022-12-06T04:11:10.037Z,95116.66
2022-12-06T04:13:37.132Z,95114.00
2022-12-06T04:16:04.554Z,95107.31
2022-12-06T04:18:31.612Z,95112.38
2022-12-06T04:21:19.983Z,95116.13
2022-12-06T04:23:49.631Z,95113.94
2022-12-06T04:26:20.210Z,95108.59
2022-12-06T04:29:06.158Z,95114.75
2022-12-06T04:31:51.667Z,95114.75
2022-12-06T04:34:37.629Z,95113.16
2022-12-06T04:37:23.544Z,95115.56
2022-12-06T04:39:50.714Z,95111.81
2022-12-06T04:42:36.377Z,95110.75
2022-12-06T04:45:05.269Z,95104.59
2022-12-06T04:47:32.796Z,95107.53
2022-12-06T04:50:00.018Z,95108.06
2022-12-06T04:52:31.300Z,95106.47
2022-12-06T04:55:01.297Z,95110.22
2022-12-06T04:57:28.330Z,95104.31
2022-12-06T04:59:55.231Z,95105.41
2022-12-06T05:02:22.303Z,95107.53
2022-12-06T05:04:49.365Z,95109.69
2022-12-06T05:07:16.412Z,95102.22
2022-12-06T05:09:43.517Z,95099.28
2022-12-06T05:12:10.538Z,95103.81
2022-12-06T05:14:37.658Z,95099.53
2022-12-06T05:17:04.709Z,95106.19
2022-12-06T05:19:31.965Z,95101.38
2022-12-06T05:21:59.367Z,95106.72
2022-12-06T05:24:26.730Z,95106.47
2022-12-06T05:26:53.918Z,95108.06
2022-12-06T05:29:20.990Z,95112.88
2022-12-06T05:31:48.288Z,95119.03
2022-12-06T05:34:15.599Z,95118.22
2022-12-06T05:36:45.111Z,95107.56
2022-12-06T05:39:12.297Z,95117.47
2022-12-06T05:41:39.258Z,95105.16
2022-12-06T05:44:06.379Z,95104.91
2022-12-06T05:46:33.442Z,95101.41
2022-12-06T05:49:00.550Z,95097.66
2022-12-06T05:51:27.650Z,95094.47
2022-12-06T05:53:55.185Z,95092.06
2022-12-06T05:56:22.238Z,95095.25
2022-12-06T05:58:49.252Z,95093.66
2022-12-06T06:01:16.799Z,95092.06
2022-12-06T06:03:47.406Z,95091.00
2022-12-06T06:06:15.563Z,95087.25
2022-12-06T06:08:42.643Z,95098.97
2022-12-06T06:11:09.850Z,95092.03
2022-12-06T06:13:37.285Z,95098.97
2022-12-06T06:16:04.769Z,95096.88
2022-12-06T06:18:31.832Z,95099.28
2022-12-06T06:21:00.611Z,95100.63
2022-12-06T06:23:28.412Z,95108.09
2022-12-06T06:25:55.982Z,95105.97
2022-12-06T06:28:23.529Z,95107.03
2022-12-06T06:30:52.299Z,95113.19
2022-12-06T06:33:19.593Z,95101.16
2022-12-06T06:35:46.779Z,95103.03
2022-12-06T06:38:14.348Z,95102.78
2022-12-06T06:40:41.513Z,95103.56
2022-12-06T06:43:20.862Z,95103.03
2022-12-06T06:46:00.406Z,95091.00
2022-12-06T06:48:30.457Z,95101.44
2022-12-06T06:51:02.792Z,95103.06
2022-12-06T06:53:29.873Z,95099.84
2022-12-06T06:55:57.325Z,95101.97
2022-12-06T06:58:25.764Z,95105.44
2022-12-06T07:00:58.291Z,95103.84
2022-12-06T07:03:26.437Z,95098.75
2022-12-06T07:06:02.045Z,95099.53
2022-12-06T07:08:31.443Z,95097.94
2022-12-06T07:10:58.990Z,95100.06
2022-12-06T07:13:27.001Z,95093.09
2022-12-06T07:15:54.385Z,95093.34
2022-12-06T07:18:22.055Z,95089.59
2022-12-06T07:20:49.959Z,95091.44
2022-12-06T07:23:17.020Z,95092.50
2022-12-06T07:25:44.211Z,95094.63
2022-12-06T07:28:11.352Z,95097.28
2022-12-06T07:30:38.322Z,95084.38
2022-12-06T07:33:05.586Z,95092.66
2022-12-06T07:36:03.651Z,95091.84
2022-12-06T07:38:21.158Z,95085.66
2022-12-06T07:41:03.949Z,95078.94
2022-12-06T07:43:50.437Z,95084.84
2022-12-06T07:46:18.192Z,95083.25
2022-12-06T07:48:45.296Z,95079.19
2022-12-06T07:51:12.679Z,95077.28
2022-12-06T07:53:39.963Z,95084.78
2022-12-06T07:56:08.380Z,95087.97
2022-12-06T07:58:35.505Z,95088.53
2022-12-06T08:01:04.729Z,95096.53
2022-12-06T08:03:32.383Z,95089.78
2022-12-06T08:06:00.635Z,95095.44
2022-12-06T08:08:29.166Z,95090.03
2022-12-06T08:11:00.529Z,95088.66
2022-12-06T08:13:28.945Z,95081.97
2022-12-06T08:15:56.639Z,95078.72
2022-12-06T08:18:23.894Z,95086.50
2022-12-06T08:20:51.476Z,95082.13
2022-12-06T08:23:18.830Z,95079.69
2022-12-06T08:25:46.237Z,95070.00
2022-12-06T08:28:13.284Z,95073.16
2022-12-06T08:30:41.495Z,95073.16
2022-12-06T08:33:08.622Z,95075.91
2022-12-06T08:35:38.635Z,95071.63
2022-12-06T08:38:05.705Z,95082.91
2022-12-06T08:40:32.899Z,95082.34
2022-12-06T08:42:59.846Z,95086.03
2022-12-06T08:45:26.928Z,95075.75
2022-12-06T08:47:54.032Z,95071.75
2022-12-06T08:50:21.554Z,95069.84
2022-12-06T08:52:49.055Z,95073.00
2022-12-06T08:55:16.213Z,95069.53
2022-12-06T08:57:43.414Z,95072.97
2022-12-06T09:00:11.732Z,95068.59
2022-12-06T09:02:40.880Z,95067.19
2022-12-06T09:05:12.261Z,95058.78
2022-12-06T09:07:39.256Z,95045.63
2022-12-06T09:10:07.279Z,95049.19
2022-12-06T09:12:34.696Z,95034.16
2022-12-06T09:15:01.660Z,95028.94
2022-12-06T09:17:28.687Z,95026.38
2022-12-06T09:19:58.493Z,95020.91
2022-12-06T09:22:27.874Z,95026.75
2022-12-06T09:24:54.973Z,95018.09
2022-12-06T09:27:22.890Z,95009.47
2022-12-06T09:29:49.870Z,94995.50
2022-12-06T09:32:17.237Z,94991.16
2022-12-06T09:34:44.128Z,94984.66
2022-12-06T09:37:14.146Z,94984.50
2022-12-06T09:39:46.382Z,94977.19
2022-12-06T09:42:46.551Z,94971.19
2022-12-06T09:45:54.606Z,94981.66
2022-12-06T09:48:50.262Z,94983.44
2022-12-06T09:51:52.377Z,94978.31
2022-12-06T09:55:03.895Z,94968.72
2022-12-06T09:58:20.868Z,94967.63
2022-12-06T10:01:15.432Z,94965.84
2022-12-06T10:04:06.609Z,94961.91
2022-12-06T10:07:01.581Z,94951.72
2022-12-06T10:10:23.765Z,94941.78
2022-12-06T10:13:32.308Z,94934.41
2022-12-06T10:16:55.383Z,94930.00
2022-12-06T10:19:50.000Z,94919.16
2022-12-06T10:22:51.241Z,94911.41
2022-12-06T10:25:26.810Z,94911.53
2022-12-06T10:28:35.235Z,94918.28
2022-12-06T10:31:27.428Z,94907.63
2022-12-06T10:34:19.890Z,94911.25
2022-12-06T10:37:40.899Z,94919.53
2022-12-06T10:40:26.754Z,94906.00
2022-12-06T10:43:23.445Z,94909.00
2022-12-06T10:46:40.215Z,94906.50
2022-12-06T10:49:30.141Z,94901.59
2022-12-06T10:52:27.377Z,94899.13
2022-12-06T10:55:13.013Z,94891.38
2022-12-06T10:58:18.607Z,94885.72
2022-12-06T11:00:58.986Z,94879.63
2022-12-06T11:03:34.881Z,94870.81
2022-12-06T11:06:55.463Z,94851.63
2022-12-06T11:09:43.444Z,94862.59
2022-12-06T11:12:28.020Z,94861.81
2022-12-06T11:15:13.440Z,94852.91
2022-12-06T11:17:45.655Z,94848.44
2022-12-06T11:20:53.390Z,94848.59
2022-12-06T11:23:32.874Z,94850.34
2022-12-06T11:26:36.467Z,94838.91
2022-12-06T11:29:08.561Z,94848.78
2022-12-06T11:31:52.443Z,94842.06
2022-12-06T11:34:42.305Z,94846.38
2022-12-06T11:37:16.236Z,94844.63
2022-12-06T11:39:43.765Z,94847.63
2022-12-06T11:42:15.215Z,94849.03
2022-12-06T11:44:49.643Z,94840.44
2022-12-06T11:47:22.102Z,94839.13
2022-12-06T11:49:52.161Z,94823.88
2022-12-06T11:52:37.581Z,94825.34
2022-12-06T11:55:21.336Z,94829.00
2022-12-06T11:58:18.808Z,94824.56
2022-12-06T12:01:01.796Z,94814.56
2022-12-06T12:03:38.107Z,94809.44
2022-12-06T12:06:26.458Z,94812.63
2022-12-06T12:09:03.169Z,94809.59
2022-12-06T12:11:33.128Z,94809.75
2022-12-06T12:14:04.914Z,94809.13
2022-12-06T12:16:44.595Z,94804.78
2022-12-06T12:19:44.822Z,94797.34
2022-12-06T12:22:38.604Z,94800.38
2022-12-06T12:25:28.086Z,94794.81
2022-12-06T12:27:57.145Z,94789.84
2022-12-06T12:30:52.716Z,94781.56
2022-12-06T12:33:22.274Z,94775.06
2022-12-06T12:36:10.130Z,94767.59
2022-12-06T12:39:01.191Z,94771.25
2022-12-06T12:41:48.681Z,94767.91
2022-12-06T12:44:37.751Z,94778.09
2022-12-06T12:47:17.721Z,94774.91
2022-12-06T12:50:02.255Z,94768.72
2022-12-06T12:52:42.218Z,94773.63
2022-12-06T12:55:30.622Z,94791.09
2022-12-06T12:58:00.162Z,94781.00
2022-12-06T13:00:35.846Z,94775.09
2022-12-06T13:03:34.995Z,94771.22
2022-12-06T13:06:02.311Z,94765.56
2022-12-06T13:08:36.322Z,94765.38
2022-12-06T13:11:06.460Z,94758.38
2022-12-06T13:13:43.459Z,94761.38
2022-12-06T13:16:18.693Z,94763.94
2022-12-06T13:18:52.881Z,94756.78
2022-12-06T13:21:23.568Z,94764.41
2022-12-06T13:24:07.739Z,94760.25
2022-12-06T13:26:40.582Z,94757.97
2022-12-06T13:29:53.850Z,94757.56
2022-12-06T13:32:26.854Z,94759.53
2022-12-06T13:34:57.865Z,94743.31
2022-12-06T13:37:43.194Z,94736.31
2022-12-06T13:40:38.456Z,94750.56
2022-12-06T13:43:48.781Z,94750.41
2022-12-06T13:46:28.279Z,94759.00
2022-12-06T13:49:04.306Z,94753.44
2022-12-06T13:51:52.144Z,94756.63
2022-12-06T13:54:29.528Z,94747.28
2022-12-06T13:56:58.529Z,94755.91
2022-12-06T13:59:38.578Z,94755.97
2022-12-06T14:02:52.563Z,94752.31
2022-12-06T14:06:16.103Z,94750.09
2022-12-06T14:08:59.717Z,94746.75
2022-12-06T14:11:29.298Z,94738.19
2022-12-06T14:14:02.336Z,94742.75
2022-12-06T14:16:46.003Z,94738.25
2022-12-06T14:19:17.173Z,94744.78
2022-12-06T14:21:53.420Z,94745.72
2022-12-06T14:24:36.117Z,94749.88
2022-12-06T14:27:21.210Z,94752.47
2022-12-06T14:30:26.169Z,94759.63
2022-12-06T14:32:58.815Z,94754.22
2022-12-06T14:35:37.271Z,94748.19
2022-12-06T14:38:24.799Z,94754.94
2022-12-06T14:41:11.601Z,94755.03
2022-12-06T14:43:39.881Z,94754.31
2022-12-06T14:46:10.713Z,94746.91
2022-12-06T14:48:56.956Z,94753.81
2022-12-06T14:51:36.486Z,94755.63
2022-12-06T14:54:42.716Z,94751.44
2022-12-06T14:57:28.265Z,94760.78
2022-12-06T15:00:26.368Z,94761.59
2022-12-06T15:03:26.426Z,94755.69
2022-12-06T15:06:18.050Z,94755.66
2022-12-06T15:08:55.442Z,94750.22
2022-12-06T15:11:52.943Z,94748.22
2022-12-06T15:14:26.214Z,94752.34
2022-12-06T15:17:21.647Z,94747.16
2022-12-06T15:19:50.551Z,94743.28
2022-12-06T15:22:25.306Z,94751.56
2022-12-06T15:24:57.933Z,94742.78
2022-12-06T15:27:27.197Z,94734.66
2022-12-06T15:29:54.396Z,94737.03
2022-12-06T15:32:23.883Z,94733.34
2022-12-06T15:34:51.013Z,94730.84
2022-12-06T15:40:06.147Z,94719.94
2022-12-06T15:42:33.184Z,94727.63
2022-12-06T15:45:00.296Z,94732.41
2022-12-06T15:47:27.671Z,94726.03
2022-12-06T15:49:58.291Z,94720.03
2022-12-06T15:52:26.408Z,94723.59
2022-12-06T15:54:53.667Z,94715.41
2022-12-06T15:57:20.844Z,94709.03
2022-12-06T15:59:47.816Z,94711.44
2022-12-06T16:02:17.176Z,94720.03
2022-12-06T16:04:45.708Z,94716.03
2022-12-06T16:07:19.175Z,94726.53
2022-12-06T16:09:46.871Z,94714.22
2022-12-06T16:12:13.837Z,94725.31
2022-12-06T16:14:40.952Z,94718.59
2022-12-06T16:17:08.037Z,94722.91
2022-12-06T16:19:53.558Z,94717.56
2022-12-06T16:22:40.493Z,94722.38
2022-12-06T16:25:08.054Z,94716.28
2022-12-06T16:27:34.985Z,94713.38
2022-12-06T16:30:02.921Z,94718.50
2022-12-06T16:32:29.985Z,94715.63
2022-12-06T16:34:56.961Z,94718.34
2022-12-06T16:37:23.944Z,94709.28
2022-12-06T16:39:51.581Z,94710.38
2022-12-06T16:42:18.502Z,94705.34
2022-12-06T16:44:51.667Z,94712.84
2022-12-06T16:47:18.707Z,94711.59
2022-12-06T16:49:47.330Z,94715.91
2022-12-06T16:52:16.415Z,94710.56
2022-12-06T16:54:44.134Z,94728.69
2022-12-06T16:57:12.217Z,94732.44
2022-12-06T16:59:39.272Z,94723.31
2022-12-06T17:02:21.910Z,94727.09
2022-12-06T17:04:48.881Z,94723.44
2022-12-06T17:07:16.005Z,94728.81
2022-12-06T17:09:42.962Z,94730.50
2022-12-06T17:12:13.411Z,94732.38
2022-12-06T17:14:41.079Z,94727.81
2022-12-06T17:17:13.840Z,94727.25
2022-12-06T17:19:42.444Z,94737.50
2022-12-06T17:22:11.934Z,94728.72
2022-12-06T17:24:39.149Z,94729.50
2022-12-06T17:27:07.253Z,94730.03
2022-12-06T17:29:34.718Z,94732.72
2022-12-06T17:32:02.300Z,94731.63
2022-12-06T17:34:29.348Z,94727.88
2022-12-06T17:36:57.601Z,94722.53
2022-12-06T17:39:25.588Z,94726.06
2022-12-06T17:42:11.432Z,94720.78
2022-12-06T17:44:40.028Z,94713.31
2022-12-06T17:47:07.107Z,94720.28
2022-12-06T17:49:36.299Z,94719.53
2022-12-06T17:52:03.375Z,94715.81
2022-12-06T17:54:33.627Z,94712.06
2022-12-06T17:57:00.685Z,94708.72
2022-12-06T17:59:30.635Z,94706.56
2022-12-06T18:02:17.099Z,94719.94
2022-12-06T18:04:45.068Z,94717.25
2022-12-06T18:07:13.260Z,94715.09
2022-12-06T18:09:40.544Z,94718.81
2022-12-06T18:12:12.681Z,94710.78
2022-12-06T18:14:40.112Z,94714.78
2022-12-06T18:17:07.404Z,94715.28
2022-12-06T18:19:35.478Z,94706.44
2022-12-06T18:22:02.596Z,94717.44
2022-12-06T18:24:35.252Z,94717.19
2022-12-06T18:27:03.855Z,94711.03
2022-12-06T18:29:30.994Z,94715.56
2022-12-06T18:31:58.172Z,94711.03
2022-12-06T18:34:25.398Z,94699.25
2022-12-06T18:36:52.689Z,94692.03
2022-12-06T18:39:24.621Z,94694.72
2022-12-06T18:41:53.591Z,94692.38
2022-12-06T18:44:20.975Z,94703.38
2022-12-06T18:46:48.260Z,94695.84
2022-12-06T18:49:15.270Z,94702.28
2022-12-06T18:51:42.518Z,94698.00
2022-12-06T18:54:11.171Z,94697.22
2022-12-06T18:56:39.267Z,94694.00
2022-12-06T18:59:07.532Z,94698.53
2022-12-06T19:01:37.314Z,94703.41
2022-12-06T19:04:05.788Z,94707.47
2022-12-06T19:06:35.435Z,94707.22
2022-12-06T19:09:06.318Z,94704.03
2022-12-06T19:11:37.198Z,94697.59
2022-12-06T19:14:04.896Z,94698.94
2022-12-06T19:16:44.239Z,94709.34
2022-12-06T19:19:17.478Z,94707.06
2022-12-06T19:21:48.344Z,94704.94
2022-12-06T19:24:20.233Z,94710.53
2022-12-06T19:26:49.035Z,94710.53
2022-12-06T19:29:16.542Z,94715.06
2022-12-06T19:31:44.398Z,94711.56
2022-12-06T19:34:18.526Z,94715.81
2022-12-06T19:36:45.880Z,94715.28
2022-12-06T19:39:14.115Z,94703.25
2022-12-06T19:42:00.454Z,94707.25
2022-12-06T19:44:28.155Z,94698.94
2022-12-06T19:46:55.481Z,94694.41
2022-12-06T19:49:24.924Z,94690.66
2022-12-06T19:51:52.561Z,94690.66
2022-12-06T19:54:25.279Z,94693.03
2022-12-06T19:56:54.675Z,94685.28
2022-12-06T19:59:23.502Z,94685.28
2022-12-06T20:01:50.770Z,94684.25
2022-12-06T20:04:20.405Z,94685.34
2022-12-06T20:06:47.659Z,94674.34
2022-12-06T20:09:15.140Z,94679.75
2022-12-06T20:12:01.725Z,94667.22
2022-12-06T20:14:55.226Z,94652.84
2022-12-06T20:17:23.875Z,94665.72
2022-12-06T20:19:51.322Z,94676.13
2022-12-06T20:22:19.926Z,94672.66
2022-12-06T20:24:47.010Z,94671.56
2022-12-06T20:27:14.499Z,94678.28
2022-12-06T20:29:41.486Z,94680.44
2022-12-06T20:32:09.651Z,94678.88
2022-12-06T20:34:36.789Z,94682.09
2022-12-06T20:37:05.776Z,94674.88
2022-12-06T20:39:35.861Z,94668.44
2022-12-06T20:42:05.897Z,94662.31
2022-12-06T20:44:33.360Z,94670.56
2022-12-06T20:47:00.655Z,94666.53
2022-12-06T20:49:27.678Z,94657.44
2022-12-06T20:51:54.619Z,94662.50
2022-12-06T20:54:22.177Z,94656.16
2022-12-06T20:56:52.209Z,94650.03
2022-12-06T20:59:19.735Z,94648.41
2022-12-06T21:01:46.994Z,94655.38
2022-12-06T21:04:15.067Z,94652.41
2022-12-06T21:06:42.170Z,94657.25
2022-12-06T21:09:09.279Z,94650.56
2022-12-06T21:11:36.402Z,94662.59
2022-12-06T21:14:04.703Z,94667.13
2022-12-06T21:16:33.516Z,94653.50
2022-12-06T21:19:06.692Z,94652.44
2022-12-06T21:21:39.515Z,94654.03
2022-12-06T21:24:10.167Z,94647.41
2022-12-06T21:26:37.527Z,94658.41
2022-12-06T21:29:05.369Z,94659.50
2022-12-06T21:31:38.447Z,94654.03
2022-12-06T21:34:05.733Z,94656.72
2022-12-06T21:36:32.839Z,94666.09
2022-12-06T21:39:00.437Z,94662.41
2022-12-06T21:41:27.839Z,94670.16
2022-12-06T21:43:55.237Z,94669.91
2022-12-06T21:46:26.820Z,94659.47
2022-12-06T21:48:59.935Z,94666.44
2022-12-06T21:51:30.390Z,94666.41
2022-12-06T21:53:57.944Z,94664.50
2022-12-06T21:56:27.332Z,94661.56
2022-12-06T21:58:54.954Z,94656.75
2022-12-06T22:01:30.094Z,94658.31
2022-12-06T22:03:59.398Z,94666.34
2022-12-06T22:06:27.144Z,94650.28
2022-12-06T22:09:03.376Z,94647.84
2022-12-06T22:11:31.110Z,94649.69
2022-12-06T22:14:00.136Z,94643.00
2022-12-06T22:16:28.602Z,94642.47
2022-12-06T22:18:55.622Z,94634.72
2022-12-06T22:21:29.382Z,94640.13
2022-12-06T22:24:00.138Z,94642.75
2022-12-06T22:26:30.155Z,94640.66
2022-12-06T22:28:58.859Z,94639.03
2022-12-06T22:31:31.744Z,94638.53
2022-12-06T22:33:59.784Z,94636.66
2022-12-06T22:36:29.536Z,94635.03
2022-12-06T22:38:59.331Z,94624.63
2022-12-06T22:41:27.656Z,94627.56
2022-12-06T22:43:57.430Z,94625.72
2022-12-06T22:46:28.134Z,94627.59
2022-12-06T22:48:56.667Z,94623.00
2022-12-06T22:51:38.165Z,94623.84
2022-12-06T22:54:06.623Z,94626.28
2022-12-06T22:56:34.348Z,94617.16
2022-12-06T22:59:02.116Z,94621.44
2022-12-06T23:01:32.313Z,94626.75
2022-12-06T23:04:01.604Z,94623.84
2022-12-06T23:06:29.390Z,94616.38
2022-12-06T23:08:56.839Z,94620.91
2022-12-06T23:11:31.961Z,94618.28
2022-12-06T23:13:59.811Z,94619.88
2022-12-06T23:16:29.750Z,94622.53
2022-12-06T23:18:57.136Z,94617.13
2022-12-06T23:21:26.892Z,94623.00
2022-12-06T23:23:56.604Z,94623.56
2022-12-06T23:26:26.871Z,94618.72
2022-12-06T23:28:54.055Z,94623.50
2022-12-06T23:31:30.399Z,94615.44
2022-12-06T23:34:03.771Z,94619.44
2022-12-06T23:36:32.591Z,94620.75
2022-12-06T23:38:59.847Z,94613.53
2022-12-06T23:41:29.079Z,94615.94
2022-12-06T23:43:57.046Z,94619.16
2022-12-06T23:46:26.857Z,94619.94
2022-12-06T23:48:54.385Z,94617.00
2022-12-06T23:51:24.448Z,94618.59
2022-12-06T23:53:53.724Z,94616.19
2022-12-06T23:56:22.430Z,94615.13
2022-12-06T23:58:50.718Z,94611.13
